Time;durP1;ratioP1;P1;durP2;ratioP2;P2;SDS_P1;SDS_P2;PMS_P1;PMS_P2;Temp;Humidity;BMP_temperature;BMP_pressure;BME280_temperature;BME280_humidity;BME280_pressure;Samples;Min_cycle;Max_cycle;Signal;HPM_P1;HPM_P2
2021/01/26 00:01:13;;;;;;;;;;;;;;;;;;5097412;28;19974;-84
2021/01/26 00:03:40;;;;;;;;;;;;;;;;;;5098327;28;19995;-85
2021/01/26 00:06:06;;;;;;;;;;;;;;;;;;5090909;28;19967;-85
2021/01/26 00:08:33;;;;;;;;;;;;;;;;;;5079633;28;19968;-85
2021/01/26 00:11:00;;;;;;;;;;;;;;;;;;5062875;28;19994;-85
2021/01/26 00:13:27;;;;;;;;;;;;;;;;;;5061767;28;20348;-85
2021/01/26 00:15:53;;;;;;;;;;;;;;;;;;5059650;28;19972;-85
2021/01/26 00:18:20;;;;;;;;;;;;;;;;;;5059148;28;19979;-85
2021/01/26 00:20:46;;;;;;;;;;;;;;;;;;5060063;28;20432;-85
2021/01/26 00:23:13;;;;;;;;;;;;;;;;;;5060002;28;19998;-85
2021/01/26 00:25:39;;;;;;;;;;;;;;;;;;5059809;28;19975;-84
2021/01/26 00:28:05;;;;;;;;;;;;;;;;;;5060223;28;19976;-84
2021/01/26 00:30:32;;;;;;;;;;;;;;;;;;5059273;28;20356;-85
2021/01/26 00:32:59;;;;;;;;;;;;;;;;;;5071518;28;19980;-84
2021/01/26 00:35:25;;;;;;;;;;;;;;;;;;5091529;28;19971;-84
2021/01/26 00:37:51;;;;;;;;;;;;;;;;;;5074620;28;19979;-84
2021/01/26 00:40:18;;;;;;;;;;;;;;;;;;5072067;28;19994;-83
2021/01/26 00:42:44;;;;;;;;;;;;;;;;;;5071122;28;19998;-83
2021/01/26 00:45:10;;;;;;;;;;;;;;;;;;5071057;28;19978;-83
2021/01/26 00:47:37;;;;;;;;;;;;;;;;;;5069267;28;19998;-84
2021/01/26 00:50:03;;;;;;;;;;;;;;;;;;5073560;28;19983;-84
2021/01/26 00:52:30;;;;;;;;;;;;;;;;;;5070261;28;19990;-84
2021/01/26 00:54:56;;;;;;;;;;;;;;;;;;5063652;28;20030;-84
2021/01/26 00:57:22;;;;;;;;;;;;;;;;;;5078054;28;19972;-84
2021/01/26 00:59:49;;;;;;;;;;;;;;;;;;5081203;28;19968;-83
2021/01/26 01:02:15;;;;;;;;;;;;;;;;;;5077325;28;19987;-84
2021/01/26 01:04:41;;;;;;;;;;;;;;;;;;5079121;28;19975;-84
2021/01/26 01:07:08;;;;;;;;;;;;;;;;;;5079187;28;19972;-84
2021/01/26 01:09:34;;;;;;;;;;;;;;;;;;5079207;28;19975;-84
2021/01/26 01:12:00;;;;;;;;;;;;;;;;;;5078744;28;20359;-85
2021/01/26 01:14:27;;;;;;;;;;;;;;;;;;5079548;28;19971;-84
2021/01/26 01:16:53;;;;;;;;;;;;;;;;;;5060150;28;19978;-84
2021/01/26 01:19:20;;;;;;;;;;;;;;;;;;5076783;28;19971;-84
2021/01/26 01:21:46;;;;;;;;;;;;;;;;;;5078767;28;19951;-85
2021/01/26 01:24:13;;;;;;;;;;;;;;;;;;5081697;28;19950;-85
2021/01/26 01:26:39;;;;;;;;;;;;;;;;;;5093159;28;19965;-84
2021/01/26 01:29:05;;;;;;;;;;;;;;;;;;5081543;28;19953;-84
2021/01/26 01:31:32;;;;;;;;;;;;;;;;;;5078675;28;20442;-85
2021/01/26 01:33:58;;;;;;;;;;;;;;;;;;5075785;28;19971;-84
2021/01/26 01:36:24;;;;;;;;;;;;;;;;;;5079040;28;19982;-85
2021/01/26 01:38:51;;;;;;;;;;;;;;;;;;5078411;28;19982;-84
2021/01/26 01:41:17;;;;;;;;;;;;;;;;;;5079313;28;20100;-84
2021/01/26 01:43:44;;;;;;;;;;;;;;;;;;5078515;28;19991;-84
2021/01/26 01:46:10;;;;;;;;;;;;;;;;;;5079371;28;20312;-85
2021/01/26 01:48:36;;;;;;;;;;;;;;;;;;5077670;28;19982;-85
2021/01/26 01:51:03;;;;;;;;;;;;;;;;;;5078312;28;20037;-84
2021/01/26 01:53:29;;;;;;;;;;;;;;;;;;5064892;28;20074;-85
2021/01/26 01:55:56;;;;;;;;;;;;;;;;;;5076207;28;19956;-85
2021/01/26 01:58:22;;;;;;;;;;;;;;;;;;5078171;28;19967;-83
2021/01/26 02:00:48;;;;;;;;;;;;;;;;;;5073583;28;19953;-84
2021/01/26 02:03:15;;;;;;;;;;;;;;;;;;5066543;28;19973;-85
2021/01/26 02:05:41;;;;;;;;;;;;;;;;;;5068570;28;19946;-85
2021/01/26 02:08:07;;;;;;;;;;;;;;;;;;5057446;28;20042;-85
2021/01/26 02:10:34;;;;;;;;;;;;;;;;;;5076321;28;20031;-85
2021/01/26 02:13:00;;;;;;;;;;;;;;;;;;5076909;28;20062;-85
2021/01/26 02:15:26;;;;;;;;;;;;;;;;;;5073748;28;20343;-85
2021/01/26 02:17:53;;;;;;;;;;;;;;;;;;5077366;28;19973;-85
2021/01/26 02:20:19;;;;;;;;;;;;;;;;;;5077853;28;19975;-83
2021/01/26 02:22:46;;;;;;;;;;;;;;;;;;5077380;28;20314;-84
2021/01/26 02:25:12;;;;;;;;;;;;;;;;;;5073047;28;19979;-85
2021/01/26 02:27:38;;;;;;;;;;;;;;;;;;5071771;28;19975;-83
2021/01/26 02:30:05;;;;;;;;;;;;;;;;;;5060906;28;19980;-83
2021/01/26 02:32:31;;;;;;;;;;;;;;;;;;5068049;28;20053;-85
2021/01/26 02:34:57;;;;;;;;;;;;;;;;;;5065783;28;19971;-85
2021/01/26 02:37:24;;;;;;;;;;;;;;;;;;5071792;28;19975;-84
2021/01/26 02:39:50;;;;;;;;;;;;;;;;;;5062418;28;19956;-85
2021/01/26 02:42:16;;;;;;;;;;;;;;;;;;5057550;28;19977;-84
2021/01/26 02:44:43;;;;;;;;;;;;;;;;;;5067040;28;20323;-84
2021/01/26 02:47:09;;;;;;;;;;;;;;;;;;5076924;28;19958;-81
2021/01/26 02:49:36;;;;;;;;;;;;;;;;;;5074780;28;19962;-83
2021/01/26 02:52:02;;;;;;;;;;;;;;;;;;5059382;28;19979;-84
2021/01/26 02:54:28;;;;;;;;;;;;;;;;;;5066433;28;20337;-82
2021/01/26 02:56:55;;;;;;;;;;;;;;;;;;5076439;28;20010;-83
2021/01/26 02:59:22;;;;;;;;;;;;;;;;;;5076837;28;19978;-83
2021/01/26 03:01:48;;;;;;;;;;;;;;;;;;5073906;28;19983;-84
2021/01/26 03:04:14;;;;;;;;;;;;;;;;;;5089034;28;19948;-83
2021/01/26 03:06:41;;;;;;;;;;;;;;;;;;5079767;28;19947;-83
2021/01/26 03:09:07;;;;;;;;;;;;;;;;;;5065507;28;19937;-86
2021/01/26 03:11:34;;;;;;;;;;;;;;;;;;5060001;28;20411;-85
2021/01/26 03:14:00;;;;;;;;;;;;;;;;;;5078431;28;19964;-84
2021/01/26 03:16:26;;;;;;;;;;;;;;;;;;5079783;28;19924;-83
2021/01/26 03:18:53;;;;;;;;;;;;;;;;;;5077539;28;20309;-84
2021/01/26 03:21:19;;;;;;;;;;;;;;;;;;5078656;28;19947;-85
2021/01/26 03:23:45;;;;;;;;;;;;;;;;;;5078568;28;19960;-85
2021/01/26 03:26:12;;;;;;;;;;;;;;;;;;5077486;28;19942;-85
2021/01/26 03:28:38;;;;;;;;;;;;;;;;;;5077995;28;19957;-85
2021/01/26 03:31:04;;;;;;;;;;;;;;;;;;5070128;28;19927;-85
2021/01/26 03:33:31;;;;;;;;;;;;;;;;;;5081039;28;19942;-85
2021/01/26 03:35:57;;;;;;;;;;;;;;;;;;5074071;28;19921;-86
2021/01/26 03:38:24;;;;;;;;;;;;;;;;;;5081264;28;19920;-85
2021/01/26 03:40:50;;;;;;;;;;;;;;;;;;5068515;28;20376;-85
2021/01/26 03:43:16;;;;;;;;;;;;;;;;;;5076285;28;19928;-85
2021/01/26 03:45:43;;;;;;;;;;;;;;;;;;5078986;28;19928;-85
2021/01/26 03:48:09;;;;;;;;;;;;;;;;;;5070367;28;19921;-85
2021/01/26 03:50:35;;;;;;;;;;;;;;;;;;5061350;28;19975;-85
2021/01/26 03:53:02;;;;;;;;;;;;;;;;;;5080424;28;20006;-85
2021/01/26 03:55:28;;;;;;;;;;;;;;;;;;5080879;28;19920;-85
2021/01/26 03:57:54;;;;;;;;;;;;;;;;;;5081183;28;19927;-85
2021/01/26 04:00:21;;;;;;;;;;;;;;;;;;5072688;28;19927;-85
2021/01/26 04:02:47;;;;;;;;;;;;;;;;;;5072247;28;19920;-85
2021/01/26 04:05:14;;;;;;;;;;;;;;;;;;5068856;28;19920;-85
2021/01/26 04:07:40;;;;;;;;;;;;;;;;;;5080787;28;19958;-84
2021/01/26 04:10:06;;;;;;;;;;;;;;;;;;5079654;28;19924;-86
2021/01/26 04:12:33;;;;;;;;;;;;;;;;;;5060120;28;19920;-85
2021/01/26 04:14:59;;;;;;;;;;;;;;;;;;5068764;28;19973;-85
2021/01/26 04:17:25;;;;;;;;;;;;;;;;;;5079526;28;19920;-86
2021/01/26 04:19:52;;;;;;;;;;;;;;;;;;5093389;22;20400;-83
2021/01/26 04:22:18;;;;;;;;;;;;;;;;;;5043078;28;19972;-84
2021/01/26 04:24:44;;;;;;;;;;;;;;;;;;5051862;28;19927;-84
2021/01/26 04:27:11;;;;;;;;;;;;;;;;;;5041307;28;19921;-83
2021/01/26 04:29:37;;;;;;;;;;;;;;;;;;5041324;28;19921;-84
2021/01/26 04:32:04;;;;;;;;;;;;;;;;;;5040884;28;19967;-84
2021/01/26 04:34:30;;;;;;;;;;;;;;;;;;5036775;28;20282;-84
2021/01/26 04:36:56;;;;;;;;;;;;;;;;;;5040714;28;19929;-83
2021/01/26 04:39:23;;;;;;;;;;;;;;;;;;5035277;28;20382;-83
2021/01/26 04:41:49;;;;;;;;;;;;;;;;;;5040789;28;19987;-84
2021/01/26 04:44:15;;;;;;;;;;;;;;;;;;5044151;28;19928;-83
2021/01/26 04:46:42;;;;;;;;;;;;;;;;;;5044496;28;19928;-84
2021/01/26 04:49:08;;;;;;;;;;;;;;;;;;5043684;28;19971;-84
2021/01/26 04:51:34;;;;;;;;;;;;;;;;;;5038841;28;19921;-84
2021/01/26 04:54:01;;;;;;;;;;;;;;;;;;5040724;28;19928;-84
2021/01/26 04:56:27;;;;;;;;;;;;;;;;;;5039658;28;19921;-84
2021/01/26 04:58:54;;;;;;;;;;;;;;;;;;5041663;28;19975;-84
2021/01/26 05:01:20;;;;;;;;;;;;;;;;;;5039630;28;19928;-84
2021/01/26 05:03:46;;;;;;;;;;;;;;;;;;5044058;28;19921;-83
2021/01/26 05:06:13;;;;;;;;;;;;;;;;;;5048372;28;19929;-84
2021/01/26 05:08:39;;;;;;;;;;;;;;;;;;5046974;28;19921;-82
2021/01/26 05:11:05;;;;;;;;;;;;;;;;;;5048903;28;19921;-81
2021/01/26 05:13:32;;;;;;;;;;;;;;;;;;5049126;28;19929;-82
2021/01/26 05:15:58;;;;;;;;;;;;;;;;;;5060654;28;19917;-80
2021/01/26 05:18:25;;;;;;;;;;;;;;;;;;5060427;28;19912;-83
2021/01/26 05:20:51;;;;;;;;;;;;;;;;;;5052349;28;20291;-83
2021/01/26 05:23:18;;;;;;;;;;;;;;;;;;5038937;28;19925;-81
2021/01/26 05:25:44;;;;;;;;;;;;;;;;;;5041658;28;19920;-83
2021/01/26 05:28:10;;;;;;;;;;;;;;;;;;5059945;28;19928;-83
2021/01/26 05:30:38;;;;;;;;;;;;;;;;;;5058151;28;19912;-84
2021/01/26 05:33:04;;;;;;;;;;;;;;;;;;5045185;28;19921;-84
2021/01/26 05:35:30;;;;;;;;;;;;;;;;;;5048112;28;19973;-83
2021/01/26 05:37:57;;;;;;;;;;;;;;;;;;5053484;28;19921;-81
2021/01/26 05:40:23;;;;;;;;;;;;;;;;;;5039945;28;20278;-83
2021/01/26 05:42:49;;;;;;;;;;;;;;;;;;5039312;28;19921;-83
2021/01/26 05:45:16;;;;;;;;;;;;;;;;;;5038392;28;19921;-82
2021/01/26 05:47:42;;;;;;;;;;;;;;;;;;5038547;28;19944;-84
2021/01/26 05:50:09;;;;;;;;;;;;;;;;;;5039085;28;19956;-81
2021/01/26 05:52:35;;;;;;;;;;;;;;;;;;5033838;28;20389;-84
2021/01/26 05:55:01;;;;;;;;;;;;;;;;;;5027981;28;20017;-83
2021/01/26 05:57:28;;;;;;;;;;;;;;;;;;5038537;28;19925;-83
2021/01/26 05:59:54;;;;;;;;;;;;;;;;;;5038131;28;19928;-83
2021/01/26 06:02:20;;;;;;;;;;;;;;;;;;5038839;28;19921;-83
2021/01/26 06:04:47;;;;;;;;;;;;;;;;;;5039631;28;19951;-83
2021/01/26 06:07:13;;;;;;;;;;;;;;;;;;5036537;28;19921;-82
2021/01/26 06:09:40;;;;;;;;;;;;;;;;;;5041999;28;19905;-82
2021/01/26 06:12:06;;;;;;;;;;;;;;;;;;5039240;28;19940;-82
2021/01/26 06:14:33;;;;;;;;;;;;;;;;;;5039701;28;19912;-81
2021/01/26 06:16:59;;;;;;;;;;;;;;;;;;5027702;28;19921;-82
2021/01/26 06:19:26;;;;;;;;;;;;;;;;;;5038121;28;20396;-82
2021/01/26 06:21:52;;;;;;;;;;;;;;;;;;5037905;28;19921;-82
2021/01/26 06:24:18;;;;;;;;;;;;;;;;;;5037950;28;19932;-83
2021/01/26 06:26:45;;;;;;;;;;;;;;;;;;5034140;28;19928;-84
2021/01/26 06:29:12;;;;;;;;;;;;;;;;;;5036542;28;19921;-83
2021/01/26 06:31:38;;;;;;;;;;;;;;;;;;5038300;28;19925;-84
2021/01/26 06:34:04;;;;;;;;;;;;;;;;;;5038009;28;20352;-83
2021/01/26 06:36:31;;;;;;;;;;;;;;;;;;5040266;28;19928;-85
2021/01/26 06:38:57;;;;;;;;;;;;;;;;;;5037048;28;19925;-84
2021/01/26 06:41:24;;;;;;;;;;;;;;;;;;5039091;28;19944;-83
2021/01/26 06:43:52;;;;;;;;;;;;;;;;;;5039160;28;20293;-83
2021/01/26 06:46:19;;;;;;;;;;;;;;;;;;5040192;28;19964;-83
2021/01/26 06:48:45;;;;;;;;;;;;;;;;;;5039995;28;19921;-82
2021/01/26 06:51:12;;;;;;;;;;;;;;;;;;5039078;28;20022;-83
2021/01/26 06:53:38;;;;;;;;;;;;;;;;;;5054806;28;19925;-81
2021/01/26 06:56:04;;;;;;;;;;;;;;;;;;5056594;28;21932;-80
2021/01/26 06:58:31;;;;;;;;;;;;;;;;;;5043916;28;20372;-84
2021/01/26 07:00:57;;;;;;;;;;;;;;;;;;5036991;28;20271;-84
2021/01/26 07:03:23;;;;;;;;;;;;;;;;;;5037564;28;20398;-83
2021/01/26 07:05:50;;;;;;;;;;;;;;;;;;5036669;28;20387;-84
2021/01/26 07:08:16;;;;;;;;;;;;;;;;;;5035598;28;20391;-83
2021/01/26 07:10:43;;;;;;;;;;;;;;;;;;5034937;28;20422;-83
2021/01/26 07:13:09;;;;;;;;;;;;;;;;;;5035397;28;20438;-84
2021/01/26 07:15:35;;;;;;;;;;;;;;;;;;5035131;28;20387;-84
2021/01/26 07:18:02;;;;;;;;;;;;;;;;;;5045639;28;20379;-81
2021/01/26 07:20:28;;;;;;;;;;;;;;;;;;5041972;28;20814;-83
2021/01/26 07:22:54;;;;;;;;;;;;;;;;;;5035218;28;20383;-83
2021/01/26 07:25:21;;;;;;;;;;;;;;;;;;5034837;28;20473;-82
2021/01/26 07:27:47;;;;;;;;;;;;;;;;;;5034893;28;20391;-83
2021/01/26 07:30:14;;;;;;;;;;;;;;;;;;5034492;28;20415;-84
2021/01/26 07:32:40;;;;;;;;;;;;;;;;;;5036039;28;20894;-85
2021/01/26 07:35:07;;;;;;;;;;;;;;;;;;5052914;28;20384;-82
2021/01/26 07:37:33;;;;;;;;;;;;;;;;;;5048747;28;20398;-84
2021/01/26 07:40:06;;;;;;;;;;;;;;;;;;5051234;28;20418;-84
2021/01/26 07:42:33;;;;;;;;;;;;;;;;;;5050621;28;20404;-84
2021/01/26 07:44:59;;;;;;;;;;;;;;;;;;5047395;28;20383;-85
2021/01/26 07:47:26;;;;;;;;;;;;;;;;;;5048707;28;20381;-85
2021/01/26 07:49:52;;;;;;;;;;;;;;;;;;5055888;28;20407;-86
2021/01/26 07:52:18;;;;;;;;;;;;;;;;;;5058334;28;20414;-87
2021/01/26 07:54:45;;;;;;;;;;;;;;;;;;5051686;28;20804;-87
2021/01/26 07:57:11;;;;;;;;;;;;;;;;;;5039237;28;20494;-84
2021/01/26 07:59:38;;;;;;;;;;;;;;;;;;5050557;28;21655;-88
2021/01/26 08:02:04;;;;;;;;;;;;;;;;;;5039715;28;26596;-86
2021/01/26 08:04:31;;;;;;;;;;;;;;;;;;5032702;28;27728;-85
2021/01/26 08:06:57;;;;;;;;;;;;;;;;;;5043247;28;25067;-88
2021/01/26 08:09:24;;;;;;;;;;;;;;;;;;5044123;28;20081;-83
2021/01/26 08:11:50;;;;;;;;;;;;;;;;;;5045544;28;19925;-84
2021/01/26 08:14:16;;;;;;;;;;;;;;;;;;5035455;28;19948;-83
2021/01/26 08:16:43;;;;;;;;;;;;;;;;;;5055520;28;19932;-81
2021/01/26 08:19:09;;;;;;;;;;;;;;;;;;5056140;28;19936;-81
2021/01/26 08:21:36;;;;;;;;;;;;;;;;;;5052380;28;19925;-81
2021/01/26 08:24:02;;;;;;;;;;;;;;;;;;5041570;28;20007;-84
2021/01/26 08:26:29;;;;;;;;;;;;;;;;;;5036429;28;19933;-84
2021/01/26 08:28:55;;;;;;;;;;;;;;;;;;5040500;28;20312;-84
2021/01/26 08:31:22;;;;;;;;;;;;;;;;;;5032407;28;19963;-86
2021/01/26 08:33:48;;;;;;;;;;;;;;;;;;5046218;28;19929;-85
2021/01/26 08:36:24;;;;;;;;;;;;;;;;;;5044491;28;19925;-86
2021/01/26 08:39:05;;;;;;;;;;;;;;;;;;5047081;28;19947;-83
2021/01/26 08:41:31;;;;;;;;;;;;;;;;;;5042051;28;19932;-86
2021/01/26 08:55:25;;;;;;;;;;;;;;;;;;4992493;28;19922;-89
2021/01/26 08:57:58;;;;;;;;;;;;;;;;;;4994674;28;20449;-87
2021/01/26 09:03:27;;;;;;;;;;;;;;;;;;5039922;28;19966;-89
2021/01/26 09:08:39;;;;;;;;;;;;;;;;;;4978382;28;19973;-87
2021/01/26 09:11:05;;;;;;;;;;;;;;;;;;4985237;28;19961;-87
2021/01/26 09:13:32;;;;;;;;;;;;;;;;;;4999175;28;19956;-87
2021/01/26 09:15:58;;;;;;;;;;;;;;;;;;5027651;28;21549;-85
2021/01/26 09:18:25;;;;;;;;;;;;;;;;;;5040221;28;19925;-85
2021/01/26 09:20:52;;;;;;;;;;;;;;;;;;5037437;28;19929;-86
2021/01/26 09:23:18;;;;;;;;;;;;;;;;;;5038529;28;19932;-86
2021/01/26 09:25:45;;;;;;;;;;;;;;;;;;5038384;28;19925;-87
2021/01/26 09:28:14;;;;;;;;;;;;;;;;;;5059104;28;19968;-87
2021/01/26 09:30:40;;;;;;;;;;;;;;;;;;5058782;28;19925;-87
2021/01/26 09:33:23;;;;;;;;;;;;;;;;;;;;;
2021/01/26 09:35:51;;;;;;;;;;;;;;;;;;5050877;28;19931;-91
2021/01/26 09:38:17;;;;;;;;;;;;;;;;;;5045515;28;19925;-86
2021/01/26 09:40:43;;;;;;;;;;;;;;;;;;5035867;28;19950;-88
2021/01/26 09:43:10;;;;;;;;;;;;;;;;;;5056600;28;19925;-88
2021/01/26 09:45:36;;;;;;;;;;;;;;;;;;5056268;28;20038;-89
2021/01/26 09:48:03;;;;;;;;;;;;;;;;;;5039167;28;20066;-88
2021/01/26 09:50:29;;;;;;;;;;;;;;;;;;5025469;28;19971;-89
2021/01/26 09:52:56;;;;;;;;;;;;;;;;;;5049871;28;19925;-88
2021/01/26 09:55:22;;;;;;;;;;;;;;;;;;5041358;28;20297;-88
2021/01/26 09:57:49;;;;;;;;;;;;;;;;;;5036327;28;19937;-88
2021/01/26 10:00:15;;;;;;;;;;;;;;;;;;5035805;28;19925;-86
2021/01/26 10:02:41;;;;;;;;;;;;;;;;;;5038283;28;19925;-88
2021/01/26 10:05:08;;;;;;;;;;;;;;;;;;5045224;28;19936;-88
2021/01/26 10:07:34;;;;;;;;;;;;;;;;;;5037730;28;19932;-88
2021/01/26 10:10:01;;;;;;;;;;;;;;;;;;5040332;28;19925;-87
2021/01/26 10:12:28;;;;;;;;;;;;;;;;;;5030287;28;19978;-86
2021/01/26 10:14:55;;;;;;;;;;;;;;;;;;5039633;28;20003;-82
2021/01/26 10:17:21;;;;;;;;;;;;;;;;;;5035100;28;19946;-86
2021/01/26 10:19:48;;;;;;;;;;;;;;;;;;5038572;28;19981;-84
2021/01/26 10:22:14;;;;;;;;;;;;;;;;;;5040641;28;19973;-81
2021/01/26 10:24:41;;;;;;;;;;;;;;;;;;5038256;28;19976;-83
2021/01/26 10:27:07;;;;;;;;;;;;;;;;;;5029405;28;19982;-84
2021/01/26 10:29:34;;;;;;;;;;;;;;;;;;5038806;28;20007;-84
2021/01/26 10:32:02;;;;;;;;;;;;;;;;;;5032266;28;19996;-84
2021/01/26 10:34:28;;;;;;;;;;;;;;;;;;5040985;28;19986;-86
2021/01/26 10:36:55;;;;;;;;;;;;;;;;;;5039928;28;19983;-86
2021/01/26 10:39:21;;;;;;;;;;;;;;;;;;5039263;28;19999;-85
2021/01/26 10:41:48;;;;;;;;;;;;;;;;;;5035870;28;20771;-83
2021/01/26 10:44:14;;;;;;;;;;;;;;;;;;5037104;28;20078;-85
2021/01/26 10:46:40;;;;;;;;;;;;;;;;;;5035201;28;19972;-86
2021/01/26 10:49:07;;;;;;;;;;;;;;;;;;5024807;28;22613;-86
2021/01/26 10:51:33;;;;;;;;;;;;;;;;;;5034513;28;42031;-85
2021/01/26 10:54:03;;;;;;;;;;;;;;;;;;5038402;28;51187;-87
2021/01/26 10:56:30;;;;;;;;;;;;;;;;;;5033209;28;53055;-85
2021/01/26 10:59:03;;;;;;;;;;;;;;;;;;5040200;28;20004;-86
2021/01/26 11:01:29;;;;;;;;;;;;;;;;;;5057092;28;19967;-82
2021/01/26 11:03:56;;;;;;;;;;;;;;;;;;5058161;28;20040;-84
2021/01/26 11:06:22;;;;;;;;;;;;;;;;;;5078442;28;19972;-82
2021/01/26 11:08:50;;;;;;;;;;;;;;;;;;5061223;28;19969;-84
2021/01/26 11:11:21;;;;;;;;;;;;;;;;;;5057524;28;19909;-83
2021/01/26 11:13:49;;;;;;;;;;;;;;;;;;5047649;28;20023;-85
2021/01/26 11:16:16;;;;;;;;;;;;;;;;;;5037968;28;19925;-83
2021/01/26 11:18:42;;;;;;;;;;;;;;;;;;5024889;28;19926;-82
2021/01/26 11:21:08;;;;;;;;;;;;;;;;;;5031315;28;19936;-82
2021/01/26 11:23:35;;;;;;;;;;;;;;;;;;5021081;28;20298;-83
2021/01/26 11:26:02;;;;;;;;;;;;;;;;;;5034680;28;19925;-84
2021/01/26 11:28:29;;;;;;;;;;;;;;;;;;5032512;28;19929;-83
2021/01/26 11:30:55;;;;;;;;;;;;;;;;;;5034577;28;19925;-83
2021/01/26 11:33:22;;;;;;;;;;;;;;;;;;5030086;28;19925;-83
2021/01/26 11:35:48;;;;;;;;;;;;;;;;;;5036535;28;19929;-83
2021/01/26 11:38:15;;;;;;;;;;;;;;;;;;5040299;28;20437;-82
2021/01/26 11:40:41;;;;;;;;;;;;;;;;;;5030284;28;19925;-83
2021/01/26 11:43:07;;;;;;;;;;;;;;;;;;5039020;28;20309;-82
2021/01/26 11:45:34;;;;;;;;;;;;;;;;;;5039206;28;19974;-84
2021/01/26 11:48:06;;;;;;;;;;;;;;;;;;5036387;28;19983;-87
2021/01/26 11:50:32;;;;;;;;;;;;;;;;;;5018828;28;19925;-84
2021/01/26 11:52:59;;;;;;;;;;;;;;;;;;5035707;28;19925;-84
2021/01/26 11:55:25;;;;;;;;;;;;;;;;;;5036261;28;19925;-84
2021/01/26 11:57:52;;;;;;;;;;;;;;;;;;5037206;28;19925;-84
2021/01/26 12:00:37;;;;;;;;;;;;;;;;;;5035955;28;19925;-88
2021/01/26 12:03:03;;;;;;;;;;;;;;;;;;5020097;28;19926;-85
2021/01/26 12:05:30;;;;;;;;;;;;;;;;;;5026301;28;20307;-85
2021/01/26 12:07:56;;;;;;;;;;;;;;;;;;5036963;28;19943;-85
2021/01/26 12:10:23;;;;;;;;;;;;;;;;;;5034083;28;19963;-87
2021/01/26 12:12:49;;;;;;;;;;;;;;;;;;5036644;28;19926;-85
2021/01/26 12:15:16;;;;;;;;;;;;;;;;;;5036652;28;19964;-85
2021/01/26 12:17:42;;;;;;;;;;;;;;;;;;5032287;28;19926;-85
2021/01/26 12:20:15;;;;;;;;;;;;;;;;;;5023411;28;19953;-85
2021/01/26 12:22:51;;;;;;;;;;;;;;;;;;5037051;28;20042;-83
2021/01/26 12:25:18;;;;;;;;;;;;;;;;;;5017244;28;19972;-83
2021/01/26 12:27:44;;;;;;;;;;;;;;;;;;5038204;28;20297;-85
2021/01/26 12:30:18;;;;;;;;;;;;;;;;;;5050137;28;19924;-84
2021/01/26 12:32:44;;;;;;;;;;;;;;;;;;5059577;28;19982;-82
2021/01/26 12:35:20;;;;;;;;;;;;;;;;;;5051430;28;19925;-84
2021/01/26 12:37:49;;;;;;;;;;;;;;;;;;5036475;28;20325;-85
2021/01/26 12:40:15;;;;;;;;;;;;;;;;;;5035957;28;19925;-85
2021/01/26 12:42:44;;;;;;;;;;;;;;;;;;5036617;28;19983;-85
2021/01/26 12:45:20;;;;;;;;;;;;;;;;;;5043929;28;19937;-83
2021/01/26 12:47:53;;;;;;;;;;;;;;;;;;5056925;28;19986;-84
2021/01/26 12:50:21;;;;;;;;;;;;;;;;;;5056578;28;19975;-83
2021/01/26 12:52:47;;;;;;;;;;;;;;;;;;5029327;28;19940;-83
2021/01/26 12:55:14;;;;;;;;;;;;;;;;;;5031199;28;19932;-81
2021/01/26 12:57:40;;;;;;;;;;;;;;;;;;5032866;28;19941;-82
2021/01/26 13:00:07;;;;;;;;;;;;;;;;;;5036212;28;19987;-84
2021/01/26 13:02:33;;;;;;;;;;;;;;;;;;5035662;28;19925;-86
2021/01/26 13:04:59;;;;;;;;;;;;;;;;;;5032707;28;19933;-83
2021/01/26 13:07:26;;;;;;;;;;;;;;;;;;5028926;28;20011;-85
2021/01/26 13:09:52;;;;;;;;;;;;;;;;;;5034840;28;19930;-83
2021/01/26 13:12:19;;;;;;;;;;;;;;;;;;5036174;28;20390;-83
2021/01/26 13:14:45;;;;;;;;;;;;;;;;;;5035452;28;20017;-81
2021/01/26 13:17:12;;;;;;;;;;;;;;;;;;5035436;28;19944;-81
2021/01/26 13:19:38;;;;;;;;;;;;;;;;;;5034424;28;19995;-81
2021/01/26 13:22:04;;;;;;;;;;;;;;;;;;5042067;28;19925;-80
2021/01/26 13:24:31;;;;;;;;;;;;;;;;;;5037828;28;19996;-81
2021/01/26 13:26:57;;;;;;;;;;;;;;;;;;5043439;28;19987;-81
2021/01/26 13:29:24;;;;;;;;;;;;;;;;;;5041895;28;19992;-80
2021/01/26 13:31:50;;;;;;;;;;;;;;;;;;5034864;28;19998;-78
2021/01/26 13:34:16;;;;;;;;;;;;;;;;;;5032327;28;47838;-80
2021/01/26 13:39:33;;;;;;;;;;;;;;;;;;5020287;28;19984;-81
2021/01/26 13:41:59;;;;;;;;;;;;;;;;;;5036918;28;19925;-81
2021/01/26 13:44:26;;;;;;;;;;;;;;;;;;5036569;28;19925;-83
2021/01/26 13:46:52;;;;;;;;;;;;;;;;;;5035083;28;20002;-82
2021/01/26 13:49:18;;;;;;;;;;;;;;;;;;5034790;28;20000;-82
2021/01/26 13:51:45;;;;;;;;;;;;;;;;;;5032278;28;20011;-84
2021/01/26 13:54:13;;;;;;;;;;;;;;;;;;5041993;28;19972;-80
2021/01/26 13:56:41;;;;;;;;;;;;;;;;;;5053807;28;20003;-77
2021/01/26 13:59:07;;;;;;;;;;;;;;;;;;5053404;28;20022;-81
2021/01/26 14:01:34;;;;;;;;;;;;;;;;;;5028208;28;19980;-79
2021/01/26 14:04:00;;;;;;;;;;;;;;;;;;5028771;28;19987;-79
2021/01/26 14:06:27;;;;;;;;;;;;;;;;;;5035579;28;20145;-79
2021/01/26 14:08:53;;;;;;;;;;;;;;;;;;5034902;28;19996;-80
2021/01/26 14:11:20;;;;;;;;;;;;;;;;;;5036186;28;19992;-79
2021/01/26 14:13:46;;;;;;;;;;;;;;;;;;5035034;28;19983;-79
2021/01/26 14:16:13;;;;;;;;;;;;;;;;;;5036037;28;19976;-80
2021/01/26 14:21:26;;;;;;;;;;;;;;;;;;5020957;28;20386;-82
2021/01/26 14:24:03;;;;;;;;;;;;;;;;;;5052422;28;19976;-80
2021/01/26 14:26:30;;;;;;;;;;;;;;;;;;5038187;28;19960;-79
2021/01/26 14:31:37;;;;;;;;;;;;;;;;;;5027904;28;19996;-82
2021/01/26 14:36:53;;;;;;;;;;;;;;;;;;4988430;28;20058;-83
2021/01/26 14:39:20;;;;;;;;;;;;;;;;;;4993594;28;20916;-80
2021/01/26 14:41:47;;;;;;;;;;;;;;;;;;4992806;28;19973;-80
2021/01/26 14:46:59;;;;;;;;;;;;;;;;;;4979858;28;19977;-80
2021/01/26 14:49:32;;;;;;;;;;;;;;;;;;4976417;28;20040;-81
2021/01/26 14:52:01;;;;;;;;;;;;;;;;;;4993475;28;20020;-79
2021/01/26 14:54:33;;;;;;;;;;;;;;;;;;4970205;28;19981;-81
2021/01/26 14:57:01;;;;;;;;;;;;;;;;;;4978594;28;19977;-80
2021/01/26 14:59:28;;;;;;;;;;;;;;;;;;4988924;28;20461;-80
2021/01/26 15:01:54;;;;;;;;;;;;;;;;;;4991082;28;19981;-79
2021/01/26 15:04:20;;;;;;;;;;;;;;;;;;4993681;28;19977;-80
2021/01/26 15:06:47;;;;;;;;;;;;;;;;;;4994331;28;19929;-83
2021/01/26 15:09:14;;;;;;;;;;;;;;;;;;5025587;28;19932;-86
2021/01/26 15:11:43;;;;;;;;;;;;;;;;;;5040447;28;19929;-86
2021/01/26 15:17:07;;;;;;;;;;;;;;;;;;5008506;28;19952;-88
2021/01/26 15:25:08;;;;;;;;;;;;;;;;;;5043414;28;19977;-88
2021/01/26 15:27:35;;;;;;;;;;;;;;;;;;5029710;28;20371;-88
2021/01/26 15:30:02;;;;;;;;;;;;;;;;;;5032410;28;19925;-88
2021/01/26 15:32:28;;;;;;;;;;;;;;;;;;5041246;28;20016;-89
2021/01/26 15:34:55;;;;;;;;;;;;;;;;;;5041364;28;20385;-88
2021/01/26 15:37:22;;;;;;;;;;;;;;;;;;5041725;28;19925;-88
2021/01/26 15:39:49;;;;;;;;;;;;;;;;;;5042060;28;20020;-88
2021/01/26 15:42:16;;;;;;;;;;;;;;;;;;5040236;28;19925;-88
2021/01/26 15:44:42;;;;;;;;;;;;;;;;;;5039801;28;20020;-88
2021/01/26 15:47:09;;;;;;;;;;;;;;;;;;5040076;28;19929;-88
2021/01/26 15:49:35;;;;;;;;;;;;;;;;;;5042575;28;19925;-88
2021/01/26 15:52:01;;;;;;;;;;;;;;;;;;5045285;28;19987;-88
2021/01/26 15:54:28;;;;;;;;;;;;;;;;;;5033302;28;20227;-87
2021/01/26 15:59:39;;;;;;;;;;;;;;;;;;5020303;28;20338;-88
2021/01/26 16:02:07;;;;;;;;;;;;;;;;;;5021182;28;22789;-88
2021/01/26 16:04:33;;;;;;;;;;;;;;;;;;5023773;28;20012;-88
2021/01/26 16:07:01;;;;;;;;;;;;;;;;;;5017823;28;19925;-88
2021/01/26 16:09:28;;;;;;;;;;;;;;;;;;5002146;28;19971;-86
2021/01/26 16:11:54;;;;;;;;;;;;;;;;;;4999657;28;19926;-86
2021/01/26 16:14:21;;;;;;;;;;;;;;;;;;5002043;28;19929;-87
2021/01/26 16:16:49;;;;;;;;;;;;;;;;;;5001964;28;19976;-87
2021/01/26 16:19:16;;;;;;;;;;;;;;;;;;5001114;28;19925;-88
2021/01/26 16:21:46;;;;;;;;;;;;;;;;;;5000168;28;19926;-86
2021/01/26 16:24:13;;;;;;;;;;;;;;;;;;5004619;28;19953;-88
2021/01/26 16:26:39;;;;;;;;;;;;;;;;;;5000308;28;19933;-87
2021/01/26 16:29:09;;;;;;;;;;;;;;;;;;4999896;28;19925;-86
2021/01/26 16:31:35;;;;;;;;;;;;;;;;;;5004267;28;20347;-86
2021/01/26 16:34:01;;;;;;;;;;;;;;;;;;4999655;28;19925;-87
2021/01/26 16:36:28;;;;;;;;;;;;;;;;;;4996847;28;19949;-87
2021/01/26 16:38:54;;;;;;;;;;;;;;;;;;4998919;28;19952;-87
2021/01/26 16:41:21;;;;;;;;;;;;;;;;;;4997657;28;19926;-86
2021/01/26 16:43:47;;;;;;;;;;;;;;;;;;4998628;28;19926;-86
2021/01/26 16:46:14;;;;;;;;;;;;;;;;;;4998793;28;19933;-88
2021/01/26 16:48:40;;;;;;;;;;;;;;;;;;5005697;28;19929;-86
2021/01/26 16:51:07;;;;;;;;;;;;;;;;;;5002440;28;19937;-86
2021/01/26 16:53:33;;;;;;;;;;;;;;;;;;5015727;28;20030;-87
2021/01/26 16:56:01;;;;;;;;;;;;;;;;;;5001596;28;19926;-87
2021/01/26 16:58:28;;;;;;;;;;;;;;;;;;5003738;28;19926;-87
2021/01/26 17:00:54;;;;;;;;;;;;;;;;;;5004861;28;19926;-87
2021/01/26 17:03:20;;;;;;;;;;;;;;;;;;5015781;28;19926;-86
2021/01/26 17:05:51;;;;;;;;;;;;;;;;;;5002164;28;19937;-86
2021/01/26 17:08:19;;;;;;;;;;;;;;;;;;5006722;28;19926;-88
2021/01/26 17:10:46;;;;;;;;;;;;;;;;;;5003562;28;19989;-87
2021/01/26 17:13:12;;;;;;;;;;;;;;;;;;5003968;28;19933;-86
2021/01/26 17:15:38;;;;;;;;;;;;;;;;;;5013819;28;19933;-86
2021/01/26 17:18:05;;;;;;;;;;;;;;;;;;5014040;28;19933;-88
2021/01/26 17:20:32;;;;;;;;;;;;;;;;;;5019820;28;19928;-86
2021/01/26 17:22:58;;;;;;;;;;;;;;;;;;5020991;28;19994;-85
2021/01/26 17:25:25;;;;;;;;;;;;;;;;;;5011426;28;19926;-86